sensor_id;sensor_type;location;lat;lon;timestamp;pressure;altitude;pressure_sealevel;temperature;humidity
14120;BME280;7138;49.246;9.100;2022-10-26T00:00:21;98727.28;;;14.65;100.00
14120;BME280;7138;49.246;9.100;2022-10-26T00:02:47;98721.19;;;14.68;100.00
14120;BME280;7138;49.246;9.100;2022-10-26T00:05:13;98720.53;;;14.55;100.00
14120;BME280;7138;49.246;9.100;2022-10-26T00:07:41;98724.16;;;14.47;100.00
14120;BME280;7138;49.246;9.100;2022-10-26T00:10:08;98707.72;;;14.43;100.00
14120;BME280;7138;49.246;9.100;2022-10-26T00:12:33;98700.81;;;14.41;100.00
14120;BME280;7138;49.246;9.100;2022-10-26T00:14:59;98711.22;;;14.41;100.00
14120;BME280;7138;49.246;9.100;2022-10-26T00:17:25;98734.59;;;14.42;100.00
14120;BME280;7138;49.246;9.100;2022-10-26T00:19:51;98755.38;;;14.47;100.00
14120;BME280;7138;49.246;9.100;2022-10-26T00:22:17;98758.75;;;14.50;100.00
14120;BME280;7138;49.246;9.100;2022-10-26T00:24:44;98768.28;;;14.53;100.00
14120;BME280;7138;49.246;9.100;2022-10-26T00:27:10;98773.44;;;14.56;100.00
14120;BME280;7138;49.246;9.100;2022-10-26T00:29:36;98765.59;;;14.57;100.00
14120;BME280;7138;49.246;9.100;2022-10-26T00:32:02;98759.53;;;14.57;100.00
14120;BME280;7138;49.246;9.100;2022-10-26T00:34:28;98753.41;;;14.61;100.00
14120;BME280;7138;49.246;9.100;2022-10-26T00:36:54;98751.66;;;14.60;100.00
14120;BME280;7138;49.246;9.100;2022-10-26T00:39:20;98756.00;;;14.61;100.00
14120;BME280;7138;49.246;9.100;2022-10-26T00:41:47;98747.50;;;14.50;100.00
14120;BME280;7138;49.246;9.100;2022-10-26T00:44:55;98740.84;;;14.31;100.00
14120;BME280;7138;49.246;9.100;2022-10-26T00:47:32;98764.19;;;14.35;100.00
14120;BME280;7138;49.246;9.100;2022-10-26T00:50:04;98761.53;;;14.40;100.00
14120;BME280;7138;49.246;9.100;2022-10-26T00:52:32;98757.19;;;14.40;100.00
14120;BME280;7138;49.246;9.100;2022-10-26T00:54:58;98763.31;;;14.38;100.00
14120;BME280;7138;49.246;9.100;2022-10-26T00:57:27;98761.59;;;14.37;100.00
14120;BME280;7138;49.246;9.100;2022-10-26T00:59:54;98764.97;;;14.42;100.00
14120;BME280;7138;49.246;9.100;2022-10-26T01:02:22;98738.31;;;14.23;100.00
14120;BME280;7138;49.246;9.100;2022-10-26T01:04:48;98752.09;;;14.33;100.00
14120;BME280;7138;49.246;9.100;2022-10-26T01:07:15;98751.19;;;14.37;100.00
14120;BME280;7138;49.246;9.100;2022-10-26T01:09:41;98752.06;;;14.36;100.00
14120;BME280;7138;49.246;9.100;2022-10-26T01:12:07;98750.25;;;14.39;100.00
14120;BME280;7138;49.246;9.100;2022-10-26T01:14:34;98754.56;;;14.42;100.00
14120;BME280;7138;49.246;9.100;2022-10-26T01:17:15;98754.56;;;14.42;100.00
14120;BME280;7138;49.246;9.100;2022-10-26T01:20:21;98753.63;;;14.46;100.00
14120;BME280;7138;49.246;9.100;2022-10-26T01:23:02;98739.03;;;14.36;100.00
14120;BME280;7138;49.246;9.100;2022-10-26T01:25:50;98764.06;;;14.44;100.00
14120;BME280;7138;49.246;9.100;2022-10-26T01:28:39;98755.41;;;14.44;100.00
14120;BME280;7138;49.246;9.100;2022-10-26T01:31:19;98758.00;;;14.44;100.00
14120;BME280;7138;49.246;9.100;2022-10-26T01:33:55;98756.25;;;14.46;100.00
14120;BME280;7138;49.246;9.100;2022-10-26T01:36:32;98757.97;;;14.45;100.00
14120;BME280;7138;49.246;9.100;2022-10-26T01:39:06;98746.66;;;14.48;100.00
14120;BME280;7138;49.246;9.100;2022-10-26T01:41:43;98737.06;;;14.51;100.00
14120;BME280;7138;49.246;9.100;2022-10-26T01:44:17;98729.31;;;14.48;100.00
14120;BME280;7138;49.246;9.100;2022-10-26T01:46:48;98736.97;;;14.59;100.00
14120;BME280;7138;49.246;9.100;2022-10-26T01:49:20;98731.75;;;14.59;100.00
14120;BME280;7138;49.246;9.100;2022-10-26T01:51:49;98735.19;;;14.59;100.00
14120;BME280;7138;49.246;9.100;2022-10-26T01:54:15;98727.38;;;14.59;100.00
14120;BME280;7138;49.246;9.100;2022-10-26T01:56:44;98722.13;;;14.62;100.00
14120;BME280;7138;49.246;9.100;2022-10-26T01:59:41;98709.97;;;14.63;100.00
14120;BME280;7138;49.246;9.100;2022-10-26T02:05:45;98703.06;;;14.62;100.00
14120;BME280;7138;49.246;9.100;2022-10-26T02:08:26;98694.41;;;14.61;100.00
14120;BME280;7138;49.246;9.100;2022-10-26T02:11:07;98692.66;;;14.62;100.00
14120;BME280;7138;49.246;9.100;2022-10-26T02:13:46;98684.88;;;14.62;100.00
14120;BME280;7138;49.246;9.100;2022-10-26T02:16:22;98694.38;;;14.63;100.00
14120;BME280;7138;49.246;9.100;2022-10-26T02:18:58;98690.06;;;14.62;100.00
14120;BME280;7138;49.246;9.100;2022-10-26T02:21:34;98687.41;;;14.65;100.00
14120;BME280;7138;49.246;9.100;2022-10-26T02:24:04;98684.88;;;14.62;100.00
14120;BME280;7138;49.246;9.100;2022-10-26T02:26:32;98682.25;;;14.62;100.00
14120;BME280;7138;49.246;9.100;2022-10-26T02:29:03;98684.00;;;14.61;100.00
14120;BME280;7138;49.246;9.100;2022-10-26T02:31:33;98694.34;;;14.64;100.00
14120;BME280;7138;49.246;9.100;2022-10-26T02:34:05;98695.22;;;14.65;100.00
14120;BME280;7138;49.246;9.100;2022-10-26T02:36:38;98700.47;;;14.62;100.00
14120;BME280;7138;49.246;9.100;2022-10-26T02:39:10;98709.91;;;14.67;100.00
14120;BME280;7138;49.246;9.100;2022-10-26T02:41:39;98723.69;;;14.72;100.00
14120;BME280;7138;49.246;9.100;2022-10-26T02:44:13;98725.38;;;14.75;100.00
14120;BME280;7138;49.246;9.100;2022-10-26T02:46:42;98733.19;;;14.75;100.00
14120;BME280;7138;49.246;9.100;2022-10-26T02:49:09;98722.75;;;14.78;100.00
14120;BME280;7138;49.246;9.100;2022-10-26T02:51:43;98731.41;;;14.80;100.00
14120;BME280;7138;49.246;9.100;2022-10-26T02:54:15;98732.22;;;14.82;100.00
14120;BME280;7138;49.246;9.100;2022-10-26T02:56:49;98715.06;;;14.70;100.00
14120;BME280;7138;49.246;9.100;2022-10-26T02:59:20;98736.72;;;14.74;100.00
14120;BME280;7138;49.246;9.100;2022-10-26T03:01:49;98735.94;;;14.67;100.00
14120;BME280;7138;49.246;9.100;2022-10-26T03:04:16;98725.69;;;14.58;100.00
14120;BME280;7138;49.246;9.100;2022-10-26T03:06:51;98717.88;;;14.58;100.00
14120;BME280;7138;49.246;9.100;2022-10-26T03:09:17;98713.53;;;14.59;100.00
14120;BME280;7138;49.246;9.100;2022-10-26T03:11:43;98710.88;;;14.62;100.00
14120;BME280;7138;49.246;9.100;2022-10-26T03:14:09;98715.13;;;14.66;100.00
14120;BME280;7138;49.246;9.100;2022-10-26T03:16:35;98732.44;;;14.68;100.00
14120;BME280;7138;49.246;9.100;2022-10-26T03:19:00;98738.47;;;14.72;100.00
14120;BME280;7138;49.246;9.100;2022-10-26T03:21:26;98738.41;;;14.75;100.00
14120;BME280;7138;49.246;9.100;2022-10-26T03:23:54;98735.75;;;14.80;100.00
14120;BME280;7138;49.246;9.100;2022-10-26T03:26:23;98729.63;;;14.81;100.00
14120;BME280;7138;49.246;9.100;2022-10-26T03:28:49;98726.16;;;14.82;100.00
14120;BME280;7138;49.246;9.100;2022-10-26T03:31:15;98738.25;;;14.84;100.00
14120;BME280;7138;49.246;9.100;2022-10-26T03:33:40;98744.28;;;14.88;100.00
14120;BME280;7138;49.246;9.100;2022-10-26T03:36:08;98752.91;;;14.91;100.00
14120;BME280;7138;49.246;9.100;2022-10-26T03:38:34;98752.78;;;14.96;100.00
14120;BME280;7138;49.246;9.100;2022-10-26T03:41:01;98744.97;;;14.97;100.00
14120;BME280;7138;49.246;9.100;2022-10-26T03:43:27;98745.84;;;14.98;100.00
14120;BME280;7138;49.246;9.100;2022-10-26T03:45:53;98744.91;;;15.00;100.00
14120;BME280;7138;49.246;9.100;2022-10-26T03:48:18;98742.28;;;15.02;100.00
14120;BME280;7138;49.246;9.100;2022-10-26T03:50:44;98734.41;;;15.05;100.00
14120;BME280;7138;49.246;9.100;2022-10-26T03:53:10;98729.19;;;15.05;100.00
14120;BME280;7138;49.246;9.100;2022-10-26T03:55:36;98729.19;;;15.05;100.00
14120;BME280;7138;49.246;9.100;2022-10-26T03:58:03;98722.25;;;15.05;100.00
14120;BME280;7138;49.246;9.100;2022-10-26T04:00:29;98724.84;;;15.07;100.00
14120;BME280;7138;49.246;9.100;2022-10-26T04:02:57;98730.91;;;15.07;100.00
14120;BME280;7138;49.246;9.100;2022-10-26T04:05:26;98742.25;;;15.03;100.00
14120;BME280;7138;49.246;9.100;2022-10-26T04:07:54;98731.84;;;15.02;100.00
14120;BME280;7138;49.246;9.100;2022-10-26T04:10:20;98735.31;;;15.02;100.00
14120;BME280;7138;49.246;9.100;2022-10-26T04:12:46;98730.97;;;15.04;100.00
14120;BME280;7138;49.246;9.100;2022-10-26T04:15:14;98729.28;;;15.00;100.00
14120;BME280;7138;49.246;9.100;2022-10-26T04:17:40;98731.09;;;14.97;100.00
14120;BME280;7138;49.246;9.100;2022-10-26T04:20:08;98729.34;;;14.96;100.00
14120;BME280;7138;49.246;9.100;2022-10-26T04:22:34;98726.75;;;14.97;100.00
14120;BME280;7138;49.246;9.100;2022-10-26T04:25:01;98718.22;;;14.88;100.00
14120;BME280;7138;49.246;9.100;2022-10-26T04:27:27;98728.53;;;14.95;100.00
14120;BME280;7138;49.246;9.100;2022-10-26T04:29:52;98736.34;;;14.95;100.00
14120;BME280;7138;49.246;9.100;2022-10-26T04:32:20;98737.22;;;14.93;100.00
14120;BME280;7138;49.246;9.100;2022-10-26T04:34:46;98725.97;;;14.92;100.00
14120;BME280;7138;49.246;9.100;2022-10-26T04:37:11;98730.38;;;14.89;100.00
14120;BME280;7138;49.246;9.100;2022-10-26T04:39:37;98729.50;;;14.88;100.00
14120;BME280;7138;49.246;9.100;2022-10-26T04:42:03;98720.81;;;14.89;100.00
14120;BME280;7138;49.246;9.100;2022-10-26T04:44:29;98719.09;;;14.87;100.00
14120;BME280;7138;49.246;9.100;2022-10-26T04:46:55;98726.13;;;14.83;100.00
14120;BME280;7138;49.246;9.100;2022-10-26T04:49:22;98727.84;;;14.84;100.00
14120;BME280;7138;49.246;9.100;2022-10-26T04:51:48;98725.22;;;14.84;100.00
14120;BME280;7138;49.246;9.100;2022-10-26T04:54:14;98723.50;;;14.85;100.00
14120;BME280;7138;49.246;9.100;2022-10-26T04:56:40;98714.81;;;14.86;100.00
14120;BME280;7138;49.246;9.100;2022-10-26T04:59:06;98720.94;;;14.83;100.00
14120;BME280;7138;49.246;9.100;2022-10-26T05:01:32;98723.59;;;14.78;100.00
14120;BME280;7138;49.246;9.100;2022-10-26T05:03:58;98714.97;;;14.75;100.00
14120;BME280;7138;49.246;9.100;2022-10-26T05:06:25;98715.88;;;14.74;100.00
14120;BME280;7138;49.246;9.100;2022-10-26T05:08:51;98714.13;;;14.74;100.00
14120;BME280;7138;49.246;9.100;2022-10-26T05:11:17;98706.34;;;14.73;100.00
14120;BME280;7138;49.246;9.100;2022-10-26T05:13:42;98701.25;;;14.67;100.00
14120;BME280;7138;49.246;9.100;2022-10-26T05:16:08;98700.47;;;14.60;100.00
14120;BME280;7138;49.246;9.100;2022-10-26T05:18:34;98712.53;;;14.66;100.00
14120;BME280;7138;49.246;9.100;2022-10-26T05:21:00;98708.13;;;14.69;100.00
14120;BME280;7138;49.246;9.100;2022-10-26T05:23:27;98705.53;;;14.71;100.00
14120;BME280;7138;49.246;9.100;2022-10-26T05:25:54;98701.19;;;14.68;100.00
14120;BME280;7138;49.246;9.100;2022-10-26T05:28:21;98701.19;;;14.68;100.00
14120;BME280;7138;49.246;9.100;2022-10-26T05:30:47;98702.97;;;14.68;100.00
14120;BME280;7138;49.246;9.100;2022-10-26T05:33:13;98702.09;;;14.67;100.00
14120;BME280;7138;49.246;9.100;2022-10-26T05:35:40;98714.22;;;14.68;100.00
14120;BME280;7138;49.246;9.100;2022-10-26T05:38:07;98731.59;;;14.68;100.00
14120;BME280;7138;49.246;9.100;2022-10-26T05:40:34;98734.22;;;14.66;100.00
14120;BME280;7138;49.246;9.100;2022-10-26T05:43:01;98730.78;;;14.64;100.00
14120;BME280;7138;49.246;9.100;2022-10-26T05:45:27;98742.00;;;14.68;100.00
14120;BME280;7138;49.246;9.100;2022-10-26T05:47:52;98745.44;;;14.70;100.00
14120;BME280;7138;49.246;9.100;2022-10-26T05:50:18;98747.13;;;14.72;100.00
14120;BME280;7138;49.246;9.100;2022-10-26T05:52:46;98747.13;;;14.74;100.00
14120;BME280;7138;49.246;9.100;2022-10-26T05:55:16;98754.88;;;14.77;100.00
14120;BME280;7138;49.246;9.100;2022-10-26T05:57:44;98757.44;;;14.78;100.00
14120;BME280;7138;49.246;9.100;2022-10-26T06:00:16;98748.00;;;14.73;100.00
14120;BME280;7138;49.246;9.100;2022-10-26T06:02:58;98765.25;;;14.80;100.00
14120;BME280;7138;49.246;9.100;2022-10-26T06:05:34;98778.31;;;14.77;100.00
14120;BME280;7138;49.246;9.100;2022-10-26T06:08:07;98781.00;;;14.71;100.00
14120;BME280;7138;49.246;9.100;2022-10-26T06:10:34;98794.91;;;14.70;100.00
14120;BME280;7138;49.246;9.100;2022-10-26T06:13:02;98797.50;;;14.68;100.00
14120;BME280;7138;49.246;9.100;2022-10-26T06:15:36;98797.50;;;14.70;100.00
14120;BME280;7138;49.246;9.100;2022-10-26T06:18:18;98799.28;;;14.68;100.00
14120;BME280;7138;49.246;9.100;2022-10-26T06:21:08;98796.72;;;14.65;100.00
14120;BME280;7138;49.246;9.100;2022-10-26T06:23:46;98805.41;;;14.64;100.00
14120;BME280;7138;49.246;9.100;2022-10-26T06:26:23;98785.69;;;14.48;100.00
14120;BME280;7138;49.246;9.100;2022-10-26T06:29:09;98813.25;;;14.61;100.00
14120;BME280;7138;49.246;9.100;2022-10-26T06:31:39;98805.34;;;14.67;100.00
14120;BME280;7138;49.246;9.100;2022-10-26T06:34:05;98811.34;;;14.72;100.00
14120;BME280;7138;49.246;9.100;2022-10-26T06:36:32;98813.91;;;14.75;100.00
14120;BME280;7138;49.246;9.100;2022-10-26T06:39:02;98807.75;;;14.79;100.00
14120;BME280;7138;49.246;9.100;2022-10-26T06:41:32;98814.66;;;14.83;100.00
14120;BME280;7138;49.246;9.100;2022-10-26T06:44:03;98820.69;;;14.84;100.00
14120;BME280;7138;49.246;9.100;2022-10-26T06:46:38;98814.69;;;14.80;100.00
14120;BME280;7138;49.246;9.100;2022-10-26T06:49:16;98816.34;;;14.86;100.00
14120;BME280;7138;49.246;9.100;2022-10-26T06:51:50;98823.25;;;14.88;100.00
14120;BME280;7138;49.246;9.100;2022-10-26T06:54:24;98825.75;;;14.93;100.00
14120;BME280;7138;49.246;9.100;2022-10-26T06:56:54;98824.84;;;14.97;100.00
14120;BME280;7138;49.246;9.100;2022-10-26T06:59:33;98825.66;;;14.99;100.00
14120;BME280;7138;49.246;9.100;2022-10-26T07:02:01;98830.81;;;15.02;100.00
14120;BME280;7138;49.246;9.100;2022-10-26T07:04:27;98831.63;;;15.05;100.00
14120;BME280;7138;49.246;9.100;2022-10-26T07:06:53;98833.31;;;15.08;100.00
14120;BME280;7138;49.246;9.100;2022-10-26T07:09:21;98837.69;;;15.06;100.00
14120;BME280;7138;49.246;9.100;2022-10-26T07:11:47;98847.19;;;15.08;100.00
14120;BME280;7138;49.246;9.100;2022-10-26T07:14:13;98844.56;;;15.11;100.00
14120;BME280;7138;49.246;9.100;2022-10-26T07:16:40;98841.91;;;15.14;100.00
14120;BME280;7138;49.246;9.100;2022-10-26T07:19:06;98840.97;;;15.17;100.00
14120;BME280;7138;49.246;9.100;2022-10-26T07:21:32;98843.53;;;15.20;100.00
14120;BME280;7138;49.246;9.100;2022-10-26T07:23:58;98846.09;;;15.23;100.00
14120;BME280;7138;49.246;9.100;2022-10-26T07:26:24;98851.28;;;15.23;100.00
14120;BME280;7138;49.246;9.100;2022-10-26T07:28:50;98864.25;;;15.27;100.00
14120;BME280;7138;49.246;9.100;2022-10-26T07:31:16;98862.53;;;15.26;100.00
14120;BME280;7138;49.246;9.100;2022-10-26T07:33:43;98878.16;;;15.26;100.00
14120;BME280;7138;49.246;9.100;2022-10-26T07:36:10;98878.16;;;15.26;100.00
14120;BME280;7138;49.246;9.100;2022-10-26T07:38:36;98870.44;;;15.22;100.00
14120;BME280;7138;49.246;9.100;2022-10-26T07:41:02;98873.97;;;15.19;100.00
14120;BME280;7138;49.246;9.100;2022-10-26T07:43:28;98873.97;;;15.19;100.00
14120;BME280;7138;49.246;9.100;2022-10-26T07:45:54;98878.25;;;15.20;100.00
14120;BME280;7138;49.246;9.100;2022-10-26T07:48:20;98877.41;;;15.20;100.00
14120;BME280;7138;49.246;9.100;2022-10-26T07:50:47;98886.06;;;15.20;100.00
14120;BME280;7138;49.246;9.100;2022-10-26T07:53:13;98882.53;;;15.24;100.00
14120;BME280;7138;49.246;9.100;2022-10-26T07:55:39;98893.75;;;15.29;100.00
14120;BME280;7138;49.246;9.100;2022-10-26T07:58:05;98898.06;;;15.30;100.00
14120;BME280;7138;49.246;9.100;2022-10-26T08:00:31;98899.75;;;15.35;100.00
14120;BME280;7138;49.246;9.100;2022-10-26T08:02:57;98897.94;;;15.38;100.00
14120;BME280;7138;49.246;9.100;2022-10-26T08:05:23;98901.31;;;15.45;100.00
14120;BME280;7138;49.246;9.100;2022-10-26T08:07:50;98902.16;;;15.47;100.00
14120;BME280;7138;49.246;9.100;2022-10-26T08:10:16;98902.09;;;15.53;100.00
14120;BME280;7138;49.246;9.100;2022-10-26T08:12:43;98904.59;;;15.59;100.00
14120;BME280;7138;49.246;9.100;2022-10-26T08:15:10;98906.22;;;15.64;100.00
14120;BME280;7138;49.246;9.100;2022-10-26T08:17:36;98911.22;;;15.75;100.00
14120;BME280;7138;49.246;9.100;2022-10-26T08:20:02;98911.13;;;15.81;100.00
14120;BME280;7138;49.246;9.100;2022-10-26T08:22:28;98911.97;;;15.83;100.00
14120;BME280;7138;49.246;9.100;2022-10-26T08:24:56;98909.09;;;15.97;100.00
14120;BME280;7138;49.246;9.100;2022-10-26T08:27:22;98915.88;;;16.05;100.00
14120;BME280;7138;49.246;9.100;2022-10-26T08:29:48;98916.59;;;16.13;100.00
14120;BME280;7138;49.246;9.100;2022-10-26T08:32:14;98912.94;;;16.22;100.00
14120;BME280;7138;49.246;9.100;2022-10-26T08:34:40;98911.03;;;16.31;100.00
14120;BME280;7138;49.246;9.100;2022-10-26T08:37:05;98907.41;;;16.37;100.00
14120;BME280;7138;49.246;9.100;2022-10-26T08:39:31;98908.03;;;16.48;100.00
14120;BME280;7138;49.246;9.100;2022-10-26T08:42:05;98916.69;;;16.52;100.00
14120;BME280;7138;49.246;9.100;2022-10-26T08:44:40;98907.81;;;16.60;100.00
14120;BME280;7138;49.246;9.100;2022-10-26T08:47:15;98913.81;;;16.65;100.00
14120;BME280;7138;49.246;9.100;2022-10-26T08:49:50;98910.22;;;16.71;100.00
14120;BME280;7138;49.246;9.100;2022-10-26T08:52:26;98907.41;;;16.78;100.00
14120;BME280;7138;49.246;9.100;2022-10-26T08:54:56;98915.16;;;16.83;100.00
14120;BME280;7138;49.246;9.100;2022-10-26T08:57:33;98913.38;;;16.85;100.00
14120;BME280;7138;49.246;9.100;2022-10-26T09:00:04;98914.34;;;16.81;100.00
14120;BME280;7138;49.246;9.100;2022-10-26T09:02:31;98912.66;;;16.78;100.00
14120;BME280;7138;49.246;9.100;2022-10-26T09:04:59;98928.03;;;16.92;100.00
14120;BME280;7138;49.246;9.100;2022-10-26T09:07:44;98925.28;;;16.98;100.00
14120;BME280;7138;49.246;9.100;2022-10-26T09:10:29;98937.38;;;17.02;100.00
14120;BME280;7138;49.246;9.100;2022-10-26T09:13:08;98932.09;;;17.05;100.00
14120;BME280;7138;49.246;9.100;2022-10-26T09:15:55;98938.06;;;17.10;100.00
14120;BME280;7138;49.246;9.100;2022-10-26T09:18:37;98938.66;;;17.21;100.00
14120;BME280;7138;49.246;9.100;2022-10-26T09:21:21;98939.28;;;17.32;100.00
14120;BME280;7138;49.246;9.100;2022-10-26T09:24:00;98946.84;;;17.43;100.00
14120;BME280;7138;49.246;9.100;2022-10-26T09:26:36;98952.69;;;17.56;100.00
14120;BME280;7138;49.246;9.100;2022-10-26T09:29:12;98956.72;;;17.69;100.00
14120;BME280;7138;49.246;9.100;2022-10-26T09:31:41;98965.94;;;17.83;100.00
14120;BME280;7138;49.246;9.100;2022-10-26T09:34:19;98969.09;;;17.96;100.00
14120;BME280;7138;49.246;9.100;2022-10-26T09:36:53;98972.31;;;18.06;100.00
14120;BME280;7138;49.246;9.100;2022-10-26T09:39:27;98972.81;;;18.20;100.00
14120;BME280;7138;49.246;9.100;2022-10-26T09:42:02;98976.06;;;18.29;100.00
14120;BME280;7138;49.246;9.100;2022-10-26T09:44:40;98987.06;;;18.42;100.00
14120;BME280;7138;49.246;9.100;2022-10-26T09:47:16;98991.97;;;18.54;100.00
14120;BME280;7138;49.246;9.100;2022-10-26T09:49:50;98989.81;;;18.68;100.00
14120;BME280;7138;49.246;9.100;2022-10-26T09:52:18;98998.97;;;18.84;100.00
14120;BME280;7138;49.246;9.100;2022-10-26T09:54:44;98992.31;;;19.02;100.00
14120;BME280;7138;49.246;9.100;2022-10-26T09:57:15;98989.06;;;19.23;100.00
14120;BME280;7138;49.246;9.100;2022-10-26T09:59:45;98990.34;;;19.39;100.00
14120;BME280;7138;49.246;9.100;2022-10-26T10:02:35;98985.22;;;19.61;100.00
14120;BME280;7138;49.246;9.100;2022-10-26T10:05:02;98991.97;;;19.70;100.00
14120;BME280;7138;49.246;9.100;2022-10-26T10:07:41;98988.00;;;19.83;100.00
14120;BME280;7138;49.246;9.100;2022-10-26T10:10:15;98989.06;;;20.03;100.00
14120;BME280;7138;49.246;9.100;2022-10-26T10:12:41;98989.19;;;20.25;100.00
14120;BME280;7138;49.246;9.100;2022-10-26T10:15:17;98998.97;;;20.46;97.43
14120;BME280;7138;49.246;9.100;2022-10-26T10:17:48;99010.53;;;20.65;97.66
14120;BME280;7138;49.246;9.100;2022-10-26T10:20:18;98997.28;;;20.68;96.35
14120;BME280;7138;49.246;9.100;2022-10-26T10:22:56;99010.66;;;20.86;92.50
14120;BME280;7138;49.246;9.100;2022-10-26T10:25:32;99015.53;;;20.96;95.83
14120;BME280;7138;49.246;9.100;2022-10-26T10:27:59;99011.69;;;21.05;94.06
14120;BME280;7138;49.246;9.100;2022-10-26T10:30:30;99008.94;;;21.08;90.07
14120;BME280;7138;49.246;9.100;2022-10-26T10:33:06;99004.97;;;21.21;93.76
14120;BME280;7138;49.246;9.100;2022-10-26T10:35:32;99001.97;;;21.30;92.63
14120;BME280;7138;49.246;9.100;2022-10-26T10:37:59;99014.41;;;21.27;90.43
14120;BME280;7138;49.246;9.100;2022-10-26T10:40:26;99005.72;;;21.24;92.31
14120;BME280;7138;49.246;9.100;2022-10-26T10:43:04;99009.25;;;21.23;92.19
14120;BME280;7138;49.246;9.100;2022-10-26T10:45:34;99003.25;;;21.20;89.08
14120;BME280;7138;49.246;9.100;2022-10-26T10:48:03;99007.66;;;21.19;89.35
14120;BME280;7138;49.246;9.100;2022-10-26T10:50:31;99004.78;;;21.02;87.47
14120;BME280;7138;49.246;9.100;2022-10-26T10:53:16;99011.75;;;21.03;88.12
14120;BME280;7138;49.246;9.100;2022-10-26T10:56:06;99007.84;;;21.15;89.42
14120;BME280;7138;49.246;9.100;2022-10-26T10:58:42;99008.00;;;21.10;90.39
14120;BME280;7138;49.246;9.100;2022-10-26T11:01:19;98997.19;;;21.18;89.19
14120;BME280;7138;49.246;9.100;2022-10-26T11:04:03;99008.69;;;21.37;89.18
14120;BME280;7138;49.246;9.100;2022-10-26T11:06:36;99006.66;;;21.45;89.61
14120;BME280;7138;49.246;9.100;2022-10-26T11:09:07;99010.19;;;21.44;87.69
14120;BME280;7138;49.246;9.100;2022-10-26T11:11:43;98990.34;;;21.36;87.65
14120;BME280;7138;49.246;9.100;2022-10-26T11:14:14;99010.69;;;21.54;86.33
14120;BME280;7138;49.246;9.100;2022-10-26T11:16:48;99015.75;;;21.58;86.37
14120;BME280;7138;49.246;9.100;2022-10-26T11:19:23;99014.47;;;21.68;87.94
14120;BME280;7138;49.246;9.100;2022-10-26T11:21:53;99011.78;;;21.70;86.47
14120;BME280;7138;49.246;9.100;2022-10-26T11:24:25;99013.69;;;21.66;85.77
14120;BME280;7138;49.246;9.100;2022-10-26T11:26:58;99020.16;;;21.79;86.86
14120;BME280;7138;49.246;9.100;2022-10-26T11:29:36;99024.81;;;21.95;85.69
14120;BME280;7138;49.246;9.100;2022-10-26T11:32:14;99025.63;;;22.17;87.08
14120;BME280;7138;49.246;9.100;2022-10-26T11:34:49;99033.50;;;22.18;83.08
14120;BME280;7138;49.246;9.100;2022-10-26T11:37:26;99024.34;;;22.27;84.92
14120;BME280;7138;49.246;9.100;2022-10-26T11:40:03;99042.06;;;22.23;82.57
14120;BME280;7138;49.246;9.100;2022-10-26T11:42:40;99037.03;;;22.17;83.38
14120;BME280;7138;49.246;9.100;2022-10-26T11:45:15;99049.47;;;22.14;83.17
14120;BME280;7138;49.246;9.100;2022-10-26T11:47:50;99040.19;;;22.05;84.25
14120;BME280;7138;49.246;9.100;2022-10-26T11:50:22;99042.44;;;22.14;85.81
14120;BME280;7138;49.246;9.100;2022-10-26T11:52:56;99049.78;;;22.28;86.32
14120;BME280;7138;49.246;9.100;2022-10-26T11:55:24;99051.81;;;22.42;86.91
14120;BME280;7138;49.246;9.100;2022-10-26T11:57:53;99050.69;;;22.47;82.68
14120;BME280;7138;49.246;9.100;2022-10-26T12:00:21;99044.75;;;22.62;84.38
14120;BME280;7138;49.246;9.100;2022-10-26T12:02:55;99049.97;;;22.64;82.45
14120;BME280;7138;49.246;9.100;2022-10-26T12:05:40;99052.09;;;22.76;82.87
14120;BME280;7138;49.246;9.100;2022-10-26T12:08:17;99056.50;;;22.75;82.15
14120;BME280;7138;49.246;9.100;2022-10-26T12:10:57;99056.38;;;22.58;83.05
14120;BME280;7138;49.246;9.100;2022-10-26T12:13:34;99055.19;;;22.65;83.44
14120;BME280;7138;49.246;9.100;2022-10-26T12:16:12;99064.00;;;22.64;82.13
14120;BME280;7138;49.246;9.100;2022-10-26T12:18:49;99061.50;;;22.61;81.27
14120;BME280;7138;49.246;9.100;2022-10-26T12:21:17;99058.31;;;22.53;82.05
14120;BME280;7138;49.246;9.100;2022-10-26T12:23:54;99060.97;;;22.53;83.02
14120;BME280;7138;49.246;9.100;2022-10-26T12:26:51;99069.53;;;22.38;82.78
14120;BME280;7138;49.246;9.100;2022-10-26T12:29:38;99079.09;;;22.41;84.36
14120;BME280;7138;49.246;9.100;2022-10-26T12:32:49;99080.06;;;22.38;84.31
14120;BME280;7138;49.246;9.100;2022-10-26T12:35:39;99071.63;;;22.50;85.76
14120;BME280;7138;49.246;9.100;2022-10-26T12:38:54;99076.38;;;22.62;83.15
14120;BME280;7138;49.246;9.100;2022-10-26T12:41:25;99078.88;;;22.67;82.50
14120;BME280;7138;49.246;9.100;2022-10-26T12:43:56;99068.44;;;22.64;81.91
14120;BME280;7138;49.246;9.100;2022-10-26T12:46:41;99074.69;;;22.61;81.62
14120;BME280;7138;49.246;9.100;2022-10-26T12:52:46;99084.81;;;22.30;81.71
14120;BME280;7138;49.246;9.100;2022-10-26T12:55:53;99082.31;;;22.27;82.98
14120;BME280;7138;49.246;9.100;2022-10-26T13:01:58;99085.69;;;22.30;81.72
14120;BME280;7138;49.246;9.100;2022-10-26T13:04:54;99083.81;;;22.53;83.52
14120;BME280;7138;49.246;9.100;2022-10-26T13:07:28;99079.16;;;22.59;82.24
14120;BME280;7138;49.246;9.100;2022-10-26T13:10:03;99076.84;;;22.73;82.57
14120;BME280;7138;49.246;9.100;2022-10-26T13:12:45;99079.56;;;22.91;81.28
14120;BME280;7138;49.246;9.100;2022-10-26T13:15:25;99079.66;;;23.08;81.96
14120;BME280;7138;49.246;9.100;2022-10-26T13:18:00;99085.81;;;23.27;82.52
14120;BME280;7138;49.246;9.100;2022-10-26T13:20:29;99065.06;;;23.38;83.01
14120;BME280;7138;49.246;9.100;2022-10-26T13:22:56;99077.16;;;23.62;82.07
14120;BME280;7138;49.246;9.100;2022-10-26T13:25:27;99078.72;;;23.66;80.21
14120;BME280;7138;49.246;9.100;2022-10-26T13:28:03;99082.28;;;23.65;79.80
14120;BME280;7138;49.246;9.100;2022-10-26T13:30:45;99083.28;;;23.63;80.88
14120;BME280;7138;49.246;9.100;2022-10-26T13:33:34;99085.16;;;23.61;79.03
14120;BME280;7138;49.246;9.100;2022-10-26T13:36:05;99081.47;;;23.46;79.11